Scroll down
FLIGHT INFORMATION
ASL Airlines Belgium

TAY1002

At Arrival Gate

KMSP
 KAVL
DATE: 2020-10-02
GATE: 31
GATE DEPARTURE: 15:54
TAKEOFF: 16:04
DATE: 2020-10-02
GATE:  -
LANDING: 17:55
GATE ARRIVAL: 17:59
FLIGHT DATA
Crew: 
Speed: 
827 kph
Altitude: 
35,009 ft
Stage Length: 
1,385.6 km
Block Time: 
2 hrs
Flight Time: 
1.9 hrs
Fuel Used: 
5,087 kg
Cleared Route: KMSP ODI SIBER BRIBE COTON JOT VHP SOT KAVL
TRACK DATA
50,000 ft 1,000 kts
AIRCRAFT INFO AND CUMULATIVE STATS
Aircraft Type: 
B738BCF
Registration: 
SELCAL: 
MSN/LN: 
32580 / 1024
Operator: 
Total Flights: 
15
Total Block Time: 
43.3 hrs
Total Flight Time: 
40.2 hrs
Total Fuel Used: 
110,318 kg
DATALINK LOG | Newest first | Current as of: 2021-10-19 21:47:05
LABEL SEQUENCE CONTENT Dn/Up
QD025017:59 6.5▼ Dn
QC584717:55▼ Dn
GA3837GATE PENDING▲ Up
GR3827KAVL 17:56 MAAS YP/UM WCHR/S/C HI-VAL NO DIPL/VIP NO▼ Dn
2U1028KAVL 021554Z 34013G20KT 10SM CLR 15/02 A3014 RMK AO2 SLP194 T01500022▲ Up
2S1314KAVL▼ Dn
5U0953KAVL 021800Z 35006KT 10SM SKC 12/06 A3015▲ Up
5S1112KAVL▼ Dn
QB070816:04▼ Dn
QA565915:54 17.8▼ Dn
2U4122KMSP 021253Z 03003KT 10SM BKN048 04/00 A3025 RMK AO2 SLP250 T00440000▲ Up
2S4346KMSP▼ Dn
A32336CLEARED TO KAVL VIA ZMBRO7 ODI J30 JOT VHP SOT. SQUAWK 4617.▲ Up
Q02225[LINK ACK]▲ Up
Q02225[LINK TEST]▼ Dn


AIRCRAFT HISTORY
FLIGHT DATE FLIGHT NO. ORIGIN DESTINATION CLEARED ROUTE BLOCK TIME FLIGHT TIME FUEL USED PILOT
2021-07-08TAY708LOWW EBBR LOWW MEDIX LAMSI RUDNO ESAMA UMUPU ADMUM DEVRU GEBSO ASDAK BATTY EBBR1.6 hrs1.4 hrs9,190 lbAlex K.
2021-02-05TAY205LOWI LOWW LOWI RTT NEMAL LOWW1.2 hrs1 hrs6,485 lbMarc O'Eland
2020-10-17TAY666BIKF LOWI BIKF VM RATSU BARKU BILLY STN HON DVR DIK KRH TEDGO XEBIX LOWI3.9 hrs3.7 hrs22,065 lbMarc O'Eland
2020-10-16TAY666CYUL BIKF CYUL ANTEG OBRON MOBUB EBMOS YQB BAREE YBC DORYY 5850N 6140N 6330N EPENI ELDIS KFV BIKF4.4 hrs4.2 hrs25,102 lbMarc O'Eland
2020-10-10TAY666TNCM CYUL TNCM MODOR TRNKY YIYYO OPAUL QNEPA DUPAN BRKZZ GECAL SICKL ROOFE PIERC LITTL GUICE FLAMO BOVIC KINER TILED MARIG LINND NAROW FLUTE SCOOR FINIT LEOES GRAPT THROP FATON SHERL JFK LLUND DUEYS GANDE IGN ATHOS ALB LAMED PBERG CYUL4.8 hrs4.6 hrs29,612 lbMarc O'Eland
2020-10-02TAY1002KAVL TNCM 3.7 hrs3.4 hrs20,338 lbMarc O'Eland
2020-10-02TAY1002KMSP KAVL KMSP ODI SIBER BRIBE COTON JOT VHP SOT KAVL2 hrs1.9 hrs11,214 lbMarc O'Eland
2020-09-27TAY666KTUL KMSP KTUL TUL CNU RUGBB KARMA FUZEE FGT KMSP1.7 hrs1.5 hrs9,348 lbMarc O'Eland
2020-09-22TAY1922KABQ KTUL 1.5 hrs1.3 hrs8,886 lbKevin Hall
2020-09-22TAY922KDEN KABQ KDEN SUDDZ DATME KABQ1.3 hrs1 hrs6,946 lbKevin Hall
2020-09-11TAY666KPHX KDEN KPHX YOOPR SHNPS KDEN1.6 hrs1.4 hrs9,228 lbMarc O'Eland
2020-08-22TAY666KBOS KPHX KBOS NHANT HURBE STAYC SHAAN HYLND SYR YXU FNT DEWIT HASTE PMM KG72K KP69G KP66E AYEGI KD57A KD51Y KD45W KA39U GUP KPHX5.2 hrs5 hrs28,437 lbMarc O'Eland
2020-08-17TAY666EKVG KBOS EKVG MY 6210N 6220N 6130N 5940N 5650N MELDI TOPPS AJJAY KBOS6.3 hrs6 hrs34,110 lbMarc O'Eland
2020-08-16TAY666EDDN EKVG EDDN SULUS DIMSU GORKO GASKA ALIBU BIBEG DEMAB OBISI MASEK EDEGA MAPOX BIGGE HMM REBGU RELBI RKN LONAM SOTUN ROLUM GIGUL ODMOS RODSI GIVEM NEXUS BALID UPGET OKPAL RATPU ADN STN ADASI DOSUN NALAN MY EKVG3.1 hrs3 hrs17,559 lbMarc O'Eland
2020-08-16TAY816LOWW EDDN LOWW LUGEM SUBEN NENUM AKINI EDDN1 hrs0.8 hrs4,689 lbMarc O'Eland